createdAt,value
2018-06-09T00:00:46.046Z,10.53
2018-06-09T00:03:14.238Z,11.40
2018-06-09T00:05:42.341Z,10.75
2018-06-09T00:08:10.493Z,12.47
2018-06-09T00:10:38.706Z,10.68
2018-06-09T00:13:06.878Z,14.50
2018-06-09T00:15:35.074Z,11.70
2018-06-09T00:18:03.234Z,9.68
2018-06-09T00:20:31.444Z,11.83
2018-06-09T00:22:59.627Z,12.43
2018-06-09T00:25:27.821Z,12.60
2018-06-09T00:27:55.999Z,10.90
2018-06-09T00:30:24.195Z,10.75
2018-06-09T00:32:52.378Z,12.20
2018-06-09T00:35:20.578Z,10.72
2018-06-09T00:37:48.754Z,12.05
2018-06-09T00:40:16.942Z,11.60
2018-06-09T00:42:45.056Z,11.22
2018-06-09T00:45:13.198Z,11.75
2018-06-09T00:47:41.394Z,13.43
2018-06-09T00:50:09.574Z,12.28
2018-06-09T00:52:37.778Z,11.10
2018-06-09T00:55:05.950Z,21.42
2018-06-09T00:57:34.138Z,12.55
2018-06-09T01:00:02.327Z,13.40
2018-06-09T01:02:30.526Z,16.17
2018-06-09T01:04:58.698Z,12.43
2018-06-09T01:07:26.910Z,11.20
2018-06-09T01:09:55.083Z,12.13
2018-06-09T01:12:23.266Z,13.78
2018-06-09T01:14:51.445Z,11.80
2018-06-09T01:17:19.891Z,13.50
2018-06-09T01:19:48.022Z,13.10
2018-06-09T01:22:16.214Z,14.33
2018-06-09T01:24:44.394Z,14.95
2018-06-09T01:27:12.596Z,15.72
2018-06-09T01:29:41.799Z,17.02
2018-06-09T01:32:09.986Z,12.65
2018-06-09T01:34:38.170Z,13.62
2018-06-09T01:37:06.354Z,12.88
2018-06-09T01:39:34.562Z,14.05
2018-06-09T01:42:02.747Z,19.00
2018-06-09T01:44:30.922Z,14.45
2018-06-09T01:46:59.097Z,15.58
2018-06-09T01:49:27.302Z,14.90
2018-06-09T01:51:55.481Z,13.05
2018-06-09T01:54:23.678Z,13.03
2018-06-09T01:56:51.841Z,12.78
2018-06-09T01:59:20.014Z,12.00
2018-06-09T02:01:48.087Z,12.85
2018-06-09T02:04:16.185Z,13.18
2018-06-09T02:06:44.262Z,13.70
2018-06-09T02:09:12.354Z,12.80
2018-06-09T02:11:40.534Z,12.98
2018-06-09T02:14:08.630Z,15.25
2018-06-09T02:16:36.701Z,13.43
2018-06-09T02:19:04.794Z,14.33
2018-06-09T02:21:32.982Z,15.15
2018-06-09T02:24:01.157Z,15.13
2018-06-09T02:26:29.250Z,14.65
2018-06-09T02:28:57.448Z,17.17
2018-06-09T02:31:25.625Z,21.70
2018-06-09T02:33:53.811Z,19.00
2018-06-09T02:36:21.918Z,16.10
2018-06-09T02:38:50.081Z,14.18
2018-06-09T02:41:18.481Z,18.42
2018-06-09T02:43:46.650Z,15.08
2018-06-09T02:46:14.750Z,14.80
2018-06-09T02:48:42.929Z,16.75
2018-06-09T02:51:11.122Z,13.70
2018-06-09T02:53:39.394Z,14.03
2018-06-09T02:56:07.494Z,12.53
2018-06-09T02:58:35.675Z,13.35
2018-06-09T03:01:03.775Z,12.65
2018-06-09T03:03:31.946Z,15.98
2018-06-09T03:06:00.030Z,13.98
2018-06-09T03:08:28.117Z,13.20
2018-06-09T03:10:56.224Z,12.55
2018-06-09T03:13:24.403Z,14.10
2018-06-09T03:15:52.575Z,14.23
2018-06-09T03:18:20.670Z,15.20
2018-06-09T03:20:48.846Z,13.80
2018-06-09T03:23:17.042Z,13.78
2018-06-09T03:25:45.218Z,15.03
2018-06-09T03:28:13.327Z,13.32
2018-06-09T03:30:41.490Z,12.98
2018-06-09T03:33:09.578Z,12.95
2018-06-09T03:35:37.786Z,12.68
2018-06-09T03:38:05.983Z,12.50
2018-06-09T03:40:34.166Z,12.70
2018-06-09T03:43:02.501Z,11.97
2018-06-09T03:45:30.637Z,13.13
2018-06-09T03:47:58.834Z,12.23
2018-06-09T03:50:27.008Z,13.53
2018-06-09T03:52:55.193Z,13.22
2018-06-09T03:55:23.390Z,13.20
2018-06-09T03:57:51.577Z,12.35
2018-06-09T04:00:19.758Z,14.55
2018-06-09T04:02:47.955Z,14.05
2018-06-09T04:05:16.175Z,15.63
2018-06-09T04:07:44.325Z,13.38
2018-06-09T04:10:12.514Z,12.43
2018-06-09T04:12:40.681Z,12.63
2018-06-09T04:15:08.881Z,11.68
2018-06-09T04:17:37.061Z,13.45
2018-06-09T04:20:06.187Z,14.65
2018-06-09T04:22:34.363Z,12.13
2018-06-09T04:25:02.559Z,11.95
2018-06-09T04:27:30.733Z,12.55
2018-06-09T04:29:58.921Z,10.93
2018-06-09T04:32:27.110Z,12.93
2018-06-09T04:34:55.210Z,11.57
2018-06-09T04:37:23.372Z,12.65
2018-06-09T04:39:52.524Z,14.00
2018-06-09T04:42:20.542Z,14.93
2018-06-09T04:44:48.642Z,12.05
2018-06-09T04:47:16.814Z,12.03
2018-06-09T04:49:45.935Z,12.53
2018-06-09T04:52:14.189Z,13.90
2018-06-09T04:54:42.310Z,12.70
2018-06-09T04:57:10.477Z,12.23
2018-06-09T04:59:39.585Z,16.27
2018-06-09T05:02:07.687Z,12.65
2018-06-09T05:04:35.869Z,11.50
2018-06-09T05:07:03.953Z,11.33
2018-06-09T05:09:32.129Z,11.85
2018-06-09T05:12:00.231Z,13.38
2018-06-09T05:14:28.407Z,14.45
2018-06-09T05:16:56.522Z,12.98
2018-06-09T05:19:24.682Z,13.15
2018-06-09T05:21:52.778Z,13.38
2018-06-09T05:24:20.946Z,13.13
2018-06-09T05:26:49.050Z,13.30
2018-06-09T05:29:17.219Z,13.20
2018-06-09T05:31:45.314Z,14.98
2018-06-09T05:34:13.485Z,13.20
2018-06-09T05:36:41.578Z,16.27
2018-06-09T05:39:09.665Z,13.25
2018-06-09T05:41:37.869Z,14.00
2018-06-09T05:44:06.035Z,13.13
2018-06-09T05:46:34.124Z,14.70
2018-06-09T05:49:02.323Z,14.68
2018-06-09T05:51:30.390Z,13.68
2018-06-09T05:53:58.510Z,14.10
2018-06-09T05:56:26.666Z,14.75
2018-06-09T05:58:54.757Z,14.40
2018-06-09T06:01:22.949Z,12.80
2018-06-09T06:03:51.126Z,14.60
2018-06-09T06:06:20.230Z,14.98
2018-06-09T06:08:48.309Z,17.10
2018-06-09T06:11:16.394Z,17.35
2018-06-09T06:13:44.487Z,15.88
2018-06-09T06:16:12.670Z,15.70
2018-06-09T06:18:40.815Z,19.30
2018-06-09T06:21:08.942Z,15.58
2018-06-09T06:23:37.025Z,15.55
2018-06-09T06:26:05.153Z,15.40
2018-06-09T06:28:33.293Z,15.95
2018-06-09T06:31:01.393Z,16.17
2018-06-09T06:33:29.601Z,16.35
2018-06-09T06:35:57.790Z,17.30
2018-06-09T06:38:26.018Z,14.68
2018-06-09T06:40:54.201Z,21.95
2018-06-09T06:43:22.349Z,23.40
2018-06-09T06:45:50.465Z,20.43
2018-06-09T06:48:18.639Z,18.23
2018-06-09T06:50:46.806Z,21.07
2018-06-09T06:53:14.989Z,27.87
2018-06-09T06:55:43.178Z,35.40
2018-06-09T06:58:11.367Z,33.63
2018-06-09T07:00:39.578Z,35.03
2018-06-09T07:03:07.730Z,33.33
2018-06-09T07:05:35.837Z,43.38
2018-06-09T07:08:04.002Z,38.95
2018-06-09T07:10:32.224Z,40.10
2018-06-09T07:13:00.830Z,40.65
2018-06-09T07:15:28.973Z,42.13
2018-06-09T07:17:57.172Z,37.40
2018-06-09T07:20:25.358Z,33.18
2018-06-09T07:22:53.545Z,40.33
2018-06-09T07:25:21.729Z,36.63
2018-06-09T07:27:49.918Z,38.30
2018-06-09T07:30:18.104Z,38.33
2018-06-09T07:32:46.282Z,34.88
2018-06-09T07:35:14.407Z,33.30
2018-06-09T07:37:42.544Z,31.73
2018-06-09T07:40:10.616Z,32.58
2018-06-09T07:42:38.706Z,31.55
2018-06-09T07:45:06.890Z,31.25
2018-06-09T07:47:35.081Z,27.15
2018-06-09T07:50:05.213Z,24.72
2018-06-09T07:52:33.389Z,22.98
2018-06-09T07:55:01.474Z,24.67
2018-06-09T07:57:29.555Z,29.40
2018-06-09T07:59:58.681Z,24.92
2018-06-09T08:02:26.870Z,26.00
2018-06-09T08:04:55.054Z,23.75
2018-06-09T08:07:23.246Z,23.00
2018-06-09T08:09:52.338Z,25.48
2018-06-09T08:12:20.423Z,26.35
2018-06-09T08:14:48.726Z,22.42
2018-06-09T08:17:16.893Z,21.30
2018-06-09T08:19:44.997Z,23.15
2018-06-09T08:22:13.171Z,22.02
2018-06-09T08:24:41.259Z,25.17
2018-06-09T08:27:09.445Z,20.30
2018-06-09T08:29:38.557Z,22.80
2018-06-09T08:32:06.733Z,20.68
2018-06-09T08:34:34.929Z,19.67
2018-06-09T08:37:03.135Z,22.27
2018-06-09T08:39:31.334Z,23.95
2018-06-09T08:41:59.559Z,23.32
2018-06-09T08:44:27.706Z,21.35
2018-06-09T08:46:55.886Z,18.98
2018-06-09T08:49:24.078Z,19.55
2018-06-09T08:51:52.249Z,20.15
2018-06-09T08:54:20.450Z,19.92
2018-06-09T08:56:48.780Z,19.77
2018-06-09T08:59:16.925Z,17.95
2018-06-09T09:01:45.102Z,20.68
2018-06-09T09:04:13.290Z,24.45
2018-06-09T09:06:41.394Z,21.77
2018-06-09T09:09:09.566Z,25.08
2018-06-09T09:11:37.878Z,24.95
2018-06-09T09:14:06.038Z,22.20
2018-06-09T09:16:34.292Z,21.07
2018-06-09T09:19:02.409Z,17.40
2018-06-09T09:21:30.614Z,22.87
2018-06-09T09:23:58.790Z,29.40
2018-06-09T09:26:26.982Z,29.18
2018-06-09T09:28:55.081Z,27.32
2018-06-09T09:31:23.203Z,21.87
2018-06-09T09:33:51.321Z,20.30
2018-06-09T09:36:19.503Z,23.92
2018-06-09T09:38:47.678Z,19.57
2018-06-09T09:41:15.762Z,22.67
2018-06-09T09:43:43.950Z,18.90
2018-06-09T09:46:12.042Z,18.80
2018-06-09T09:48:40.222Z,20.25
2018-06-09T09:51:08.423Z,21.50
2018-06-09T09:53:36.589Z,19.05
2018-06-09T09:56:04.694Z,21.33
2018-06-09T09:58:32.867Z,18.70
2018-06-09T10:01:00.974Z,17.17
2018-06-09T10:03:29.154Z,20.12
2018-06-09T10:05:57.330Z,16.45
2018-06-09T10:08:25.506Z,18.85
2018-06-09T10:10:53.604Z,16.37
2018-06-09T10:13:21.778Z,15.85
2018-06-09T10:15:49.877Z,15.35
2018-06-09T10:18:18.059Z,14.47
2018-06-09T10:20:46.237Z,17.25
2018-06-09T10:23:14.436Z,18.42
2018-06-09T10:25:42.514Z,17.80
2018-06-09T10:28:10.600Z,16.65
2018-06-09T10:30:38.669Z,14.83
2018-06-09T10:33:06.770Z,15.75
2018-06-09T10:35:34.983Z,15.65
2018-06-09T10:38:03.182Z,14.78
2018-06-09T10:40:31.288Z,16.00
2018-06-09T10:42:59.446Z,14.83
2018-06-09T10:45:27.656Z,17.60
2018-06-09T10:47:55.903Z,18.82
2018-06-09T10:50:24.002Z,14.23
2018-06-09T10:52:52.189Z,14.13
2018-06-09T10:55:20.365Z,18.70
2018-06-09T10:57:48.765Z,15.38
2018-06-09T11:00:17.905Z,15.88
2018-06-09T11:02:46.057Z,15.03
2018-06-09T11:05:14.242Z,15.20
2018-06-09T11:07:42.434Z,13.72
2018-06-09T11:10:10.651Z,14.87
2018-06-09T11:12:38.838Z,14.15
2018-06-09T11:15:07.035Z,17.12
2018-06-09T11:17:35.281Z,16.35
2018-06-09T11:20:04.445Z,13.18
2018-06-09T11:22:32.605Z,16.12
2018-06-09T11:25:00.782Z,12.93
2018-06-09T11:27:28.978Z,13.00
2018-06-09T11:29:57.182Z,14.13
2018-06-09T11:32:25.339Z,17.57
2018-06-09T11:34:53.597Z,13.80
2018-06-09T11:37:21.698Z,11.83
2018-06-09T11:39:49.922Z,12.82
2018-06-09T11:42:18.109Z,17.37
2018-06-09T11:44:46.269Z,12.73
2018-06-09T11:47:14.460Z,15.85
2018-06-09T11:49:43.669Z,11.55
2018-06-09T11:52:11.865Z,12.37
2018-06-09T11:54:40.062Z,12.65
2018-06-09T11:57:08.254Z,11.90
2018-06-09T11:59:36.457Z,11.15
2018-06-09T12:02:04.397Z,16.25
2018-06-09T12:04:32.651Z,11.83
2018-06-09T12:07:00.922Z,14.25
2018-06-09T12:09:29.092Z,11.80
2018-06-09T12:11:57.230Z,13.90
2018-06-09T12:14:25.417Z,10.75
2018-06-09T12:16:53.614Z,11.88
2018-06-09T12:19:21.790Z,11.78
2018-06-09T12:21:49.999Z,10.25
2018-06-09T12:24:18.167Z,23.62
2018-06-09T12:26:46.358Z,11.22
2018-06-09T12:29:14.541Z,10.45
2018-06-09T12:31:42.725Z,11.97
2018-06-09T12:34:10.921Z,14.05
2018-06-09T12:36:39.105Z,11.57
2018-06-09T12:39:07.742Z,13.62
2018-06-09T12:41:35.929Z,11.15
2018-06-09T12:44:04.098Z,11.60
2018-06-09T12:46:32.303Z,10.60
2018-06-09T12:49:00.473Z,11.00
2018-06-09T12:51:28.661Z,10.45
2018-06-09T12:53:56.814Z,10.10
2018-06-09T12:56:25.014Z,15.65
2018-06-09T12:58:53.187Z,9.53
2018-06-09T13:01:21.381Z,9.65
2018-06-09T13:03:49.566Z,10.30
2018-06-09T13:06:17.746Z,9.75
2018-06-09T13:08:45.946Z,13.08
2018-06-09T13:11:14.234Z,12.33
2018-06-09T13:13:42.414Z,10.35
2018-06-09T13:16:10.593Z,9.43
2018-06-09T13:18:38.786Z,8.78
2018-06-09T13:21:06.970Z,10.72
2018-06-09T13:23:35.161Z,12.20
2018-06-09T13:26:03.356Z,10.25
2018-06-09T13:28:31.546Z,9.73
2018-06-09T13:30:59.724Z,10.03
2018-06-09T13:33:27.812Z,10.65
2018-06-09T13:35:55.988Z,10.43
2018-06-09T13:38:24.161Z,10.40
2018-06-09T13:40:52.363Z,10.18
2018-06-09T13:43:20.535Z,10.65
2018-06-09T13:45:48.809Z,10.82
2018-06-09T13:48:16.902Z,10.93
2018-06-09T13:50:45.081Z,11.95
2018-06-09T13:53:13.000Z,12.63
2018-06-09T13:55:41.146Z,10.85
2018-06-09T13:58:09.242Z,10.70
2018-06-09T14:00:37.425Z,11.30
2018-06-09T14:03:05.573Z,11.05
2018-06-09T14:05:33.689Z,12.63
2018-06-09T14:08:01.788Z,12.13
2018-06-09T14:10:29.858Z,11.78
2018-06-09T14:12:57.777Z,17.35
2018-06-09T14:15:26.006Z,28.90
2018-06-09T14:17:54.166Z,26.00
2018-06-09T14:20:22.321Z,30.45
2018-06-09T14:22:50.489Z,34.23
2018-06-09T14:25:18.594Z,42.38
2018-06-09T14:27:46.782Z,21.42
2018-06-09T14:30:14.855Z,44.40
2018-06-09T14:32:43.074Z,24.05
2018-06-09T14:35:11.298Z,28.42
2018-06-09T14:37:39.434Z,32.17
2018-06-09T14:40:07.662Z,23.62
2018-06-09T14:42:35.831Z,25.65
2018-06-09T14:45:04.010Z,26.93
2018-06-09T14:47:34.241Z,25.60
2018-06-09T14:50:02.424Z,28.62
2018-06-09T14:52:30.607Z,29.90
2018-06-09T14:54:58.933Z,28.47
2018-06-09T14:57:27.077Z,29.40
2018-06-09T14:59:55.278Z,24.98
2018-06-09T15:02:23.512Z,22.93
2018-06-09T15:04:51.646Z,25.05
2018-06-09T15:07:19.826Z,22.02
2018-06-09T15:09:48.941Z,20.23
2018-06-09T15:12:17.124Z,21.07
2018-06-09T15:14:45.309Z,19.77
2018-06-09T15:17:13.494Z,22.37
2018-06-09T15:19:41.694Z,17.48
2018-06-09T15:22:09.874Z,19.23
2018-06-09T15:24:38.058Z,19.32
2018-06-09T15:27:06.249Z,21.62
2018-06-09T15:29:34.438Z,17.98
2018-06-09T15:32:02.627Z,20.15
2018-06-09T15:34:30.806Z,19.48
2018-06-09T15:36:58.998Z,28.15
2018-06-09T15:39:27.181Z,30.62
2018-06-09T15:41:55.370Z,23.20
2018-06-09T15:44:23.561Z,19.10
2018-06-09T15:46:51.749Z,21.48
2018-06-09T15:49:19.931Z,21.10
2018-06-09T15:51:48.118Z,25.12
2018-06-09T15:54:16.302Z,22.05
2018-06-09T15:56:44.498Z,21.45
2018-06-09T15:59:12.702Z,26.42
2018-06-09T16:01:40.881Z,22.80
2018-06-09T16:04:09.049Z,19.60
2018-06-09T16:06:37.251Z,19.10
2018-06-09T16:09:07.471Z,17.23
2018-06-09T16:11:36.591Z,15.25
2018-06-09T16:14:04.790Z,13.98
2018-06-09T16:16:32.889Z,12.88
2018-06-09T16:19:01.042Z,12.73
2018-06-09T16:21:29.226Z,13.03
2018-06-09T16:23:57.425Z,12.18
2018-06-09T16:26:25.595Z,14.85
2018-06-09T16:28:53.790Z,13.35
2018-06-09T16:31:21.969Z,13.75
2018-06-09T16:33:50.167Z,12.47
2018-06-09T16:36:18.352Z,13.22
2018-06-09T16:38:46.450Z,13.62
2018-06-09T16:41:14.611Z,15.78
2018-06-09T16:43:42.713Z,14.30
2018-06-09T16:46:10.889Z,12.78
2018-06-09T16:48:39.073Z,11.22
2018-06-09T16:51:07.295Z,11.30
2018-06-09T16:53:35.453Z,12.90
2018-06-09T16:56:03.630Z,11.63
2018-06-09T16:58:31.820Z,12.80
2018-06-09T17:01:00.075Z,13.30
2018-06-09T17:03:28.197Z,15.78
2018-06-09T17:05:56.385Z,12.58
2018-06-09T17:08:24.579Z,12.93
2018-06-09T17:10:52.801Z,16.20
2018-06-09T17:13:20.950Z,14.43
2018-06-09T17:15:49.129Z,20.57
2018-06-09T17:18:17.329Z,19.75
2018-06-09T17:20:45.434Z,22.82
2018-06-09T17:23:13.587Z,24.87
2018-06-09T17:25:41.777Z,27.17
2018-06-09T17:28:09.962Z,26.20
2018-06-09T17:30:38.157Z,24.55
2018-06-09T17:33:06.334Z,29.95
2018-06-09T17:35:34.534Z,32.60
2018-06-09T17:38:02.775Z,28.75
2018-06-09T17:40:30.801Z,25.52
2018-06-09T17:42:59.018Z,25.05
2018-06-09T17:45:27.185Z,26.80
2018-06-09T17:47:55.373Z,22.10
2018-06-09T17:50:23.554Z,23.52
2018-06-09T17:52:51.727Z,21.82
2018-06-09T17:55:19.917Z,18.15
2018-06-09T17:57:48.089Z,23.15
2018-06-09T18:00:16.199Z,23.67
2018-06-09T18:02:44.365Z,27.55
2018-06-09T18:05:12.554Z,23.25
2018-06-09T18:07:40.748Z,24.82
2018-06-09T18:10:08.932Z,18.12
2018-06-09T18:12:37.129Z,21.93
2018-06-09T18:15:05.307Z,19.77
2018-06-09T18:17:33.502Z,22.25
2018-06-09T18:20:01.683Z,20.02
2018-06-09T18:22:29.885Z,23.30
2018-06-09T18:24:58.053Z,30.50
2018-06-09T18:27:26.250Z,20.92
2018-06-09T18:29:54.426Z,31.82
2018-06-09T18:32:22.654Z,22.00
2018-06-09T18:34:50.794Z,24.23
2018-06-09T18:37:19.097Z,23.40
2018-06-09T18:39:47.301Z,21.45
2018-06-09T18:42:15.482Z,22.30
2018-06-09T18:44:43.649Z,22.45
2018-06-09T18:47:11.838Z,22.55
2018-06-09T18:49:40.014Z,24.37
2018-06-09T18:52:08.241Z,25.62
2018-06-09T18:54:36.424Z,24.02
2018-06-09T18:57:04.772Z,25.62
2018-06-09T18:59:32.969Z,25.40
2018-06-09T19:02:01.186Z,25.30
2018-06-09T19:04:29.386Z,30.30
2018-06-09T19:06:57.549Z,26.33
2018-06-09T19:09:25.730Z,30.45
2018-06-09T19:11:53.934Z,32.48
2018-06-09T19:14:22.098Z,24.92
2018-06-09T19:16:50.288Z,23.90
2018-06-09T19:19:18.474Z,21.35
2018-06-09T19:21:46.713Z,16.93
2018-06-09T19:24:14.825Z,16.67
2018-06-09T19:26:42.901Z,13.70
2018-06-09T19:29:11.201Z,11.93
2018-06-09T19:31:39.373Z,13.98
2018-06-09T19:34:07.594Z,10.18
2018-06-09T19:36:36.587Z,8.38
2018-06-09T19:39:07.302Z,9.40
2018-06-09T19:41:35.998Z,8.93
2018-06-09T19:44:04.130Z,10.13
2018-06-09T19:46:32.311Z,9.58
2018-06-09T19:49:00.469Z,11.57
2018-06-09T19:51:28.574Z,9.55
2018-06-09T19:53:56.761Z,10.58
2018-06-09T19:56:24.969Z,10.30
2018-06-09T19:58:53.141Z,9.58
2018-06-09T20:01:21.341Z,15.53
2018-06-09T20:03:49.518Z,10.98
2018-06-09T20:06:17.713Z,13.13
2018-06-09T20:08:45.886Z,8.63
2018-06-09T20:11:14.081Z,8.73
2018-06-09T20:13:42.262Z,9.35
2018-06-09T20:16:10.458Z,10.10
2018-06-09T20:18:38.641Z,17.62
2018-06-09T20:21:07.138Z,9.23
2018-06-09T20:23:35.314Z,9.48
2018-06-09T20:26:05.570Z,9.90
2018-06-09T20:28:33.762Z,12.15
2018-06-09T20:31:02.090Z,13.22
2018-06-09T20:33:30.233Z,14.07
2018-06-09T20:35:58.386Z,10.78
2018-06-09T20:38:26.558Z,10.13
2018-06-09T20:40:54.501Z,14.05
2018-06-09T20:43:22.646Z,9.85
2018-06-09T20:45:50.813Z,10.43
2018-06-09T20:48:19.126Z,10.10
2018-06-09T20:50:47.302Z,10.25
2018-06-09T20:53:15.487Z,12.65
2018-06-09T20:55:43.672Z,13.08
2018-06-09T20:58:11.762Z,14.23
2018-06-09T21:00:39.942Z,11.90
2018-06-09T21:03:08.129Z,12.07
2018-06-09T21:05:36.323Z,12.45
2018-06-09T21:08:04.511Z,12.40
2018-06-09T21:10:32.682Z,10.55
2018-06-09T21:13:00.606Z,13.18
2018-06-09T21:15:28.749Z,12.90
2018-06-09T21:17:56.845Z,17.17
2018-06-09T21:20:25.137Z,13.90
2018-06-09T21:22:53.219Z,14.13
2018-06-09T21:25:21.398Z,13.55
2018-06-09T21:27:55.042Z,15.38
2018-06-09T21:30:28.725Z,19.07
2018-06-09T21:33:02.206Z,14.35
2018-06-09T21:35:43.786Z,15.38
2018-06-09T21:38:18.422Z,15.43
2018-06-09T21:40:47.681Z,22.30
2018-06-09T21:43:21.650Z,17.57
2018-06-09T21:45:50.550Z,20.68
2018-06-09T21:48:19.672Z,16.27
2018-06-09T21:50:47.898Z,15.72
2018-06-09T21:53:16.030Z,13.43
2018-06-09T21:55:44.209Z,14.65
2018-06-09T21:58:12.406Z,15.08
2018-06-09T22:00:40.598Z,13.20
2018-06-09T22:03:08.782Z,16.05
2018-06-09T22:05:36.958Z,14.40
2018-06-09T22:08:05.153Z,14.83
2018-06-09T22:10:33.334Z,13.25
2018-06-09T22:13:01.526Z,12.85
2018-06-09T22:15:29.710Z,13.35
2018-06-09T22:17:57.910Z,13.78
2018-06-09T22:20:26.078Z,14.18
2018-06-09T22:22:54.278Z,12.68
2018-06-09T22:25:28.033Z,13.40
2018-06-09T22:27:56.178Z,13.72
2018-06-09T22:30:24.302Z,15.25
2018-06-09T22:32:52.461Z,15.80
2018-06-09T22:35:20.637Z,15.70
2018-06-09T22:37:48.829Z,15.80
2018-06-09T22:40:17.009Z,16.77
2018-06-09T22:42:45.182Z,17.57
2018-06-09T22:45:13.390Z,15.72
2018-06-09T22:47:41.567Z,15.85
2018-06-09T22:50:10.678Z,17.55
2018-06-09T22:52:38.858Z,14.38
2018-06-09T22:55:07.058Z,18.80
2018-06-09T22:57:35.230Z,15.48
2018-06-09T23:00:03.434Z,15.05
2018-06-09T23:02:31.611Z,16.97
2018-06-09T23:04:59.809Z,15.28
2018-06-09T23:07:27.982Z,15.55
2018-06-09T23:09:57.102Z,15.23
2018-06-09T23:12:25.283Z,14.55
2018-06-09T23:14:53.474Z,14.75
2018-06-09T23:17:21.649Z,15.75
2018-06-09T23:19:50.766Z,16.15
2018-06-09T23:22:18.880Z,17.52
2018-06-09T23:24:47.034Z,16.42
2018-06-09T23:27:15.214Z,21.33
2018-06-09T23:29:43.411Z,18.50
2018-06-09T23:32:11.585Z,17.35
2018-06-09T23:34:39.790Z,19.20
2018-06-09T23:37:07.963Z,22.98
2018-06-09T23:39:36.090Z,20.08
2018-06-09T23:42:04.238Z,17.87
2018-06-09T23:44:32.436Z,18.57
2018-06-09T23:47:00.606Z,21.12
2018-06-09T23:49:28.810Z,17.85
2018-06-09T23:51:56.981Z,23.98
2018-06-09T23:54:25.178Z,20.82
2018-06-09T23:56:53.353Z,24.12
2018-06-09T23:59:21.550Z,20.88
